createdAt,value
2019-06-10T00:01:35.538Z,76.80
2019-06-10T00:04:06.601Z,76.70
2019-06-10T00:06:32.907Z,77.50
2019-06-10T00:09:03.119Z,76.70
2019-06-10T00:11:31.516Z,77.30
2019-06-10T00:14:02.431Z,77.60
2019-06-10T00:16:30.829Z,78.40
2019-06-10T00:18:58.419Z,78.80
2019-06-10T00:21:27.380Z,78.10
2019-06-10T00:23:55.214Z,78.90
2019-06-10T00:26:23.074Z,78.50
2019-06-10T00:28:51.348Z,79.10
2019-06-10T00:31:20.746Z,79.40
2019-06-10T00:33:48.817Z,80.00
2019-06-10T00:36:16.677Z,80.00
2019-06-10T00:38:44.543Z,80.30
2019-06-10T00:41:14.114Z,81.00
2019-06-10T00:43:41.922Z,81.10
2019-06-10T00:46:13.049Z,80.60
2019-06-10T00:48:41.032Z,80.40
2019-06-10T00:51:08.885Z,80.70
2019-06-10T00:53:36.774Z,80.60
2019-06-10T00:56:05.676Z,81.10
2019-06-10T00:58:34.152Z,80.40
2019-06-10T01:01:02.707Z,81.20
2019-06-10T01:03:31.629Z,81.20
2019-06-10T01:06:02.582Z,80.90
2019-06-10T01:08:31.430Z,81.30
2019-06-10T01:10:58.563Z,81.80
2019-06-10T01:13:26.389Z,82.00
2019-06-10T01:15:54.362Z,82.20
2019-06-10T01:18:34.968Z,82.60
2019-06-10T01:20:51.840Z,83.00
2019-06-10T01:23:21.398Z,82.60
2019-06-10T01:25:51.041Z,83.00
2019-06-10T01:28:18.719Z,83.20
2019-06-10T01:30:46.578Z,83.20
2019-06-10T01:33:16.015Z,83.60
2019-06-10T01:35:43.983Z,83.60
2019-06-10T01:38:13.473Z,83.30
2019-06-10T01:40:42.095Z,84.60
2019-06-10T01:43:13.352Z,83.40
2019-06-10T01:45:41.757Z,82.70
2019-06-10T01:48:12.143Z,82.50
2019-06-10T01:50:40.576Z,82.60
2019-06-10T01:53:10.100Z,83.40
2019-06-10T01:55:38.114Z,83.90
2019-06-10T01:58:05.986Z,84.20
2019-06-10T02:00:51.805Z,84.60
2019-06-10T02:03:23.708Z,84.50
2019-06-10T02:05:51.646Z,84.70
2019-06-10T02:08:21.912Z,84.60
2019-06-10T02:10:50.816Z,84.90
2019-06-10T02:13:22.185Z,84.80
2019-06-10T02:15:51.388Z,84.90
2019-06-10T02:18:22.401Z,85.50
2019-06-10T02:20:51.115Z,85.50
2019-06-10T02:23:18.707Z,85.50
2019-06-10T02:25:46.611Z,85.30
2019-06-10T02:28:15.847Z,85.00
2019-06-10T02:30:50.578Z,85.30
2019-06-10T02:33:17.427Z,84.90
2019-06-10T02:35:48.552Z,85.10
2019-06-10T02:38:19.321Z,85.20
2019-06-10T02:40:43.233Z,85.10
2019-06-10T02:43:17.466Z,85.30
2019-06-10T02:45:44.507Z,85.60
2019-06-10T02:48:13.732Z,85.50
2019-06-10T02:50:54.131Z,85.50
2019-06-10T02:53:28.499Z,85.10
2019-06-10T02:55:53.786Z,84.80
2019-06-10T02:58:24.220Z,85.30
2019-06-10T03:00:54.297Z,85.70
2019-06-10T03:03:27.941Z,85.60
2019-06-10T03:05:53.406Z,84.60
2019-06-10T03:08:22.164Z,83.10
2019-06-10T03:10:49.197Z,83.10
2019-06-10T03:13:17.630Z,83.20
2019-06-10T03:16:03.677Z,83.70
2019-06-10T03:18:32.813Z,83.00
2019-06-10T03:21:02.649Z,82.50
2019-06-10T03:23:31.983Z,81.90
2019-06-10T03:26:04.206Z,81.60
2019-06-10T03:28:32.131Z,80.70
2019-06-10T03:31:05.083Z,80.70
2019-06-10T03:33:39.330Z,80.20
2019-06-10T03:35:59.206Z,80.10
2019-06-10T03:38:28.215Z,81.00
2019-06-10T03:40:56.195Z,79.70
2019-06-10T03:43:26.309Z,79.20
2019-06-10T03:45:53.590Z,78.30
2019-06-10T03:48:23.730Z,78.40
2019-06-10T03:50:52.436Z,80.40
2019-06-10T03:53:21.914Z,81.10
2019-06-10T03:55:50.023Z,80.60
2019-06-10T03:58:17.818Z,80.20
2019-06-10T04:00:45.678Z,80.00
2019-06-10T04:03:13.547Z,78.70
2019-06-10T04:05:42.375Z,78.40
2019-06-10T04:08:12.470Z,78.80
2019-06-10T04:10:39.890Z,77.70
2019-06-10T04:13:07.763Z,78.70
2019-06-10T04:15:36.986Z,76.10
2019-06-10T04:18:04.858Z,75.10
2019-06-10T04:20:33.200Z,74.50
2019-06-10T04:23:02.799Z,75.60
2019-06-10T04:25:32.393Z,75.70
2019-06-10T04:28:00.422Z,76.20
2019-06-10T04:30:29.321Z,74.90
2019-06-10T04:32:57.249Z,75.40
2019-06-10T04:35:26.516Z,75.30
2019-06-10T04:37:54.623Z,74.10
2019-06-10T04:40:23.561Z,74.40
2019-06-10T04:42:52.526Z,74.00
2019-06-10T04:45:21.229Z,73.70
2019-06-10T04:47:52.328Z,73.10
2019-06-10T04:50:28.367Z,71.50
2019-06-10T04:52:48.990Z,68.50
2019-06-10T04:55:16.858Z,63.60
2019-06-10T04:57:44.718Z,54.50
2019-06-10T05:00:14.778Z,53.20
2019-06-10T05:02:43.029Z,53.90
2019-06-10T05:05:13.078Z,53.80
2019-06-10T05:07:42.703Z,52.80
2019-06-10T05:10:12.263Z,53.70
2019-06-10T05:12:39.694Z,50.40
2019-06-10T05:15:07.955Z,49.50
2019-06-10T05:17:35.824Z,49.20
2019-06-10T05:20:05.281Z,49.30
2019-06-10T05:22:33.153Z,48.40
2019-06-10T05:25:02.464Z,45.40
2019-06-10T05:27:32.903Z,45.90
2019-06-10T05:30:02.083Z,45.20
2019-06-10T05:32:31.167Z,44.90
2019-06-10T05:34:59.090Z,46.60
2019-06-10T05:37:28.205Z,47.70
2019-06-10T05:39:57.207Z,46.60
2019-06-10T05:42:28.200Z,48.40
2019-06-10T05:44:57.130Z,45.80
2019-06-10T05:47:27.694Z,45.30
2019-06-10T05:49:54.512Z,42.50
2019-06-10T05:52:23.367Z,43.50
2019-06-10T05:54:52.209Z,45.10
2019-06-10T05:57:22.618Z,45.00
2019-06-10T05:59:49.664Z,44.80
2019-06-10T06:02:17.540Z,42.60
2019-06-10T06:04:45.409Z,41.90
2019-06-10T06:07:13.275Z,42.80
2019-06-10T06:09:42.700Z,44.20
2019-06-10T06:12:13.711Z,44.40
2019-06-10T06:14:42.440Z,45.00
2019-06-10T06:17:09.654Z,47.50
2019-06-10T06:19:38.885Z,47.80
2019-06-10T06:22:06.895Z,46.20
2019-06-10T06:24:35.686Z,47.60
2019-06-10T06:27:03.831Z,47.80
2019-06-10T06:29:33.875Z,46.80
2019-06-10T06:32:02.704Z,46.70
2019-06-10T06:34:32.726Z,46.30
2019-06-10T06:37:02.154Z,47.10
2019-06-10T06:39:32.262Z,48.80
2019-06-10T06:41:59.319Z,47.60
2019-06-10T06:44:27.547Z,47.60
2019-06-10T06:46:55.402Z,47.70
2019-06-10T06:49:23.276Z,48.70
2019-06-10T06:51:56.216Z,49.10
2019-06-10T06:54:22.871Z,48.30
2019-06-10T06:56:50.156Z,48.80
2019-06-10T06:59:18.027Z,49.10
2019-06-10T07:01:45.978Z,48.90
2019-06-10T07:04:14.065Z,49.50
2019-06-10T07:06:43.221Z,50.50
2019-06-10T07:09:13.563Z,49.70
2019-06-10T07:11:44.898Z,47.70
2019-06-10T07:14:13.352Z,47.50
2019-06-10T07:16:45.412Z,47.40
2019-06-10T07:19:10.385Z,46.30
2019-06-10T07:21:58.405Z,45.20
2019-06-10T07:24:07.775Z,43.70
2019-06-10T07:26:39.051Z,43.70
2019-06-10T07:29:05.142Z,43.00
2019-06-10T07:31:35.252Z,43.60
2019-06-10T07:34:02.735Z,43.20
2019-06-10T07:36:33.914Z,42.50
2019-06-10T07:39:00.116Z,41.80
2019-06-10T07:41:27.977Z,43.00
2019-06-10T07:43:55.841Z,43.20
2019-06-10T07:46:25.156Z,43.20
2019-06-10T07:48:56.491Z,43.60
2019-06-10T07:51:22.792Z,44.10
2019-06-10T07:53:52.556Z,43.30
2019-06-10T07:56:22.987Z,44.40
2019-06-10T07:58:49.793Z,43.70
2019-06-10T08:01:17.730Z,44.10
2019-06-10T08:03:46.685Z,44.60
2019-06-10T08:06:14.654Z,45.60
2019-06-10T08:08:45.313Z,45.90
2019-06-10T08:11:13.652Z,45.80
2019-06-10T08:13:44.699Z,46.10
2019-06-10T08:16:13.086Z,46.10
2019-06-10T08:18:56.986Z,46.20
2019-06-10T08:21:12.235Z,46.20
2019-06-10T08:23:44.732Z,44.70
2019-06-10T08:26:12.678Z,45.30
2019-06-10T08:28:42.495Z,46.00
2019-06-10T08:31:12.395Z,46.90
2019-06-10T08:33:42.558Z,45.00
2019-06-10T08:36:09.383Z,44.80
2019-06-10T08:38:38.306Z,42.90
2019-06-10T08:41:06.211Z,44.70
2019-06-10T08:43:34.014Z,41.60
2019-06-10T08:46:02.548Z,41.30
2019-06-10T08:48:32.735Z,40.10
2019-06-10T08:51:03.244Z,40.40
2019-06-10T08:53:29.974Z,39.40
2019-06-10T08:55:57.879Z,38.70
2019-06-10T08:58:25.760Z,39.30
2019-06-10T09:00:53.955Z,39.50
2019-06-10T09:03:23.373Z,40.10
2019-06-10T09:05:53.925Z,40.70
2019-06-10T09:08:23.404Z,41.30
2019-06-10T09:10:52.539Z,42.20
2019-06-10T09:13:22.252Z,42.50
2019-06-10T09:16:06.873Z,42.00
2019-06-10T09:18:20.104Z,42.70
2019-06-10T09:20:52.691Z,42.70
2019-06-10T09:23:22.578Z,42.70
2019-06-10T09:25:51.802Z,42.90
2019-06-10T09:28:17.206Z,43.20
2019-06-10T09:30:50.964Z,43.30
2019-06-10T09:33:14.582Z,43.80
2019-06-10T09:35:47.312Z,43.40
2019-06-10T09:38:14.087Z,43.10
2019-06-10T09:40:48.634Z,42.70
2019-06-10T09:43:12.952Z,42.30
2019-06-10T09:45:45.356Z,43.60
2019-06-10T09:48:13.265Z,42.80
2019-06-10T09:50:47.069Z,43.10
2019-06-10T09:53:12.709Z,43.00
2019-06-10T09:55:44.517Z,43.20
2019-06-10T09:58:12.337Z,43.60
2019-06-10T10:00:45.235Z,43.70
2019-06-10T10:03:12.299Z,44.40
2019-06-10T10:05:45.498Z,43.30
2019-06-10T10:08:12.538Z,43.20
2019-06-10T10:10:41.655Z,44.20
2019-06-10T10:13:10.282Z,44.10
2019-06-10T10:15:38.450Z,44.30
2019-06-10T10:18:06.925Z,44.20
2019-06-10T10:20:34.785Z,44.40
2019-06-10T10:23:02.815Z,44.20
2019-06-10T10:25:33.274Z,44.30
2019-06-10T10:28:03.059Z,43.60
2019-06-10T10:30:29.823Z,44.40
2019-06-10T10:32:57.702Z,44.50
2019-06-10T10:35:25.754Z,43.80
2019-06-10T10:37:55.465Z,43.40
2019-06-10T10:40:23.415Z,44.10
2019-06-10T10:43:01.559Z,44.00
2019-06-10T10:45:22.665Z,44.90
2019-06-10T10:47:52.625Z,44.90
2019-06-10T10:50:22.515Z,42.60
2019-06-10T10:52:49.919Z,43.00
2019-06-10T10:55:17.947Z,43.70
2019-06-10T10:57:45.805Z,43.50
2019-06-10T11:00:14.874Z,43.90
2019-06-10T11:02:44.196Z,43.80
2019-06-10T11:05:13.837Z,42.70
2019-06-10T11:07:42.291Z,43.00
2019-06-10T11:10:12.670Z,42.20
2019-06-10T11:12:42.956Z,42.90
2019-06-10T11:15:13.072Z,42.50
2019-06-10T11:17:42.532Z,43.30
2019-06-10T11:20:09.981Z,43.20
2019-06-10T11:22:37.850Z,43.10
2019-06-10T11:25:09.058Z,43.60
2019-06-10T11:27:36.935Z,43.00
2019-06-10T11:30:06.586Z,42.10
2019-06-10T11:32:34.455Z,42.80
2019-06-10T11:35:02.942Z,42.30
2019-06-10T11:37:37.217Z,43.00
2019-06-10T11:40:06.228Z,42.80
2019-06-10T11:42:34.164Z,43.30
2019-06-10T11:45:02.905Z,43.90
2019-06-10T11:47:32.899Z,44.00
2019-06-10T11:50:02.830Z,42.30
2019-06-10T11:52:32.799Z,42.80
2019-06-10T11:55:11.963Z,41.30
2019-06-10T11:57:28.956Z,40.80
2019-06-10T11:59:58.343Z,41.80
2019-06-10T12:02:27.330Z,42.70
2019-06-10T12:04:57.106Z,43.70
2019-06-10T12:07:25.115Z,42.30
2019-06-10T12:09:55.327Z,44.40
2019-06-10T12:12:22.494Z,43.70
2019-06-10T12:14:54.793Z,43.50
2019-06-10T12:17:35.267Z,41.40
2019-06-10T12:19:49.824Z,42.50
2019-06-10T12:22:17.799Z,42.00
2019-06-10T12:24:45.799Z,42.70
2019-06-10T12:27:13.683Z,42.50
2019-06-10T12:29:42.291Z,42.20
2019-06-10T12:32:10.285Z,41.90
2019-06-10T12:34:38.124Z,41.70
2019-06-10T12:37:11.299Z,41.80
2019-06-10T12:39:35.504Z,41.90
2019-06-10T12:42:06.276Z,41.10
2019-06-10T12:44:33.727Z,41.70
2019-06-10T12:47:06.375Z,41.20
2019-06-10T12:49:32.074Z,42.30
2019-06-10T12:52:01.281Z,43.60
2019-06-10T12:54:29.450Z,43.40
2019-06-10T12:56:58.062Z,43.50
2019-06-10T12:59:25.915Z,43.90
2019-06-10T13:01:55.745Z,44.00
2019-06-10T13:04:23.371Z,42.60
2019-06-10T13:06:52.566Z,42.70
2019-06-10T13:09:23.389Z,42.20
2019-06-10T13:11:52.585Z,42.50
2019-06-10T13:14:21.939Z,42.80
2019-06-10T13:16:49.142Z,43.60
2019-06-10T13:19:17.027Z,43.00
2019-06-10T13:21:44.907Z,43.50
2019-06-10T13:24:13.851Z,41.90
2019-06-10T13:26:43.215Z,43.10
2019-06-10T13:29:16.632Z,42.70
2019-06-10T13:31:43.275Z,43.90
2019-06-10T13:34:12.114Z,44.80
2019-06-10T13:36:42.103Z,43.80
2019-06-10T13:39:10.448Z,43.20
2019-06-10T13:41:38.631Z,43.30
2019-06-10T13:44:06.490Z,43.40
2019-06-10T13:46:34.342Z,43.50
2019-06-10T13:49:06.837Z,43.10
2019-06-10T13:51:32.318Z,43.70
2019-06-10T13:54:03.332Z,43.30
2019-06-10T13:56:43.053Z,43.30
2019-06-10T13:59:01.608Z,44.10
2019-06-10T14:01:29.795Z,42.70
2019-06-10T14:03:57.658Z,41.60
2019-06-10T14:06:39.777Z,41.80
2019-06-10T14:08:55.094Z,42.00
2019-06-10T14:11:27.950Z,42.50
2019-06-10T14:13:52.752Z,42.50
2019-06-10T14:16:23.232Z,42.30
2019-06-10T14:18:51.262Z,41.70
2019-06-10T14:21:23.166Z,41.50
2019-06-10T14:23:49.367Z,41.20
2019-06-10T14:26:21.310Z,41.80
2019-06-10T14:28:46.762Z,42.50
2019-06-10T14:31:33.646Z,41.80
2019-06-10T14:33:44.140Z,41.70
2019-06-10T14:36:15.105Z,41.70
2019-06-10T14:38:42.078Z,41.60
2019-06-10T14:41:10.120Z,42.60
2019-06-10T14:43:37.949Z,41.80
2019-06-10T14:46:07.375Z,42.40
2019-06-10T14:48:35.966Z,42.70
2019-06-10T14:51:05.373Z,42.90
2019-06-10T14:53:33.907Z,42.60
2019-06-10T14:56:03.700Z,42.90
2019-06-10T14:58:31.327Z,43.00
2019-06-10T15:00:59.188Z,43.00
2019-06-10T15:03:27.051Z,43.50
2019-06-10T15:05:54.935Z,43.30
2019-06-10T15:08:23.236Z,43.50
2019-06-10T15:10:52.841Z,44.40
2019-06-10T15:13:23.172Z,44.00
2019-06-10T15:15:52.948Z,44.50
2019-06-10T15:18:20.674Z,44.80
2019-06-10T15:20:49.483Z,44.50
2019-06-10T15:23:19.081Z,45.00
2019-06-10T15:25:52.600Z,45.00
2019-06-10T15:28:17.580Z,45.10
2019-06-10T15:30:45.959Z,45.50
2019-06-10T15:33:16.536Z,45.40
2019-06-10T15:35:43.333Z,45.60
2019-06-10T15:38:14.789Z,45.30
2019-06-10T15:40:43.142Z,45.10
2019-06-10T15:43:11.667Z,44.40
2019-06-10T15:45:39.721Z,44.20
2019-06-10T15:48:07.588Z,44.40
2019-06-10T15:50:35.454Z,44.30
2019-06-10T15:53:03.327Z,44.90
2019-06-10T15:55:55.405Z,45.20
2019-06-10T15:58:02.055Z,45.50
2019-06-10T16:00:30.279Z,45.50
2019-06-10T16:02:58.149Z,45.40
2019-06-10T16:05:26.023Z,46.30
2019-06-10T16:07:53.890Z,45.10
2019-06-10T16:10:27.095Z,45.80
2019-06-10T16:12:52.820Z,45.70
2019-06-10T16:15:24.301Z,45.40
2019-06-10T16:17:50.371Z,45.50
2019-06-10T16:20:19.386Z,45.80
2019-06-10T16:22:47.417Z,45.70
2019-06-10T16:25:15.955Z,46.20
2019-06-10T16:27:50.708Z,46.10
2019-06-10T16:30:14.609Z,45.90
2019-06-10T16:32:45.658Z,45.80
2019-06-10T16:35:13.103Z,45.90
2019-06-10T16:37:42.218Z,46.30
2019-06-10T16:40:12.295Z,46.10
2019-06-10T16:42:42.940Z,46.40
2019-06-10T16:45:09.760Z,47.00
2019-06-10T16:47:37.619Z,46.80
2019-06-10T16:50:06.186Z,47.30
2019-06-10T16:52:34.392Z,46.90
2019-06-10T16:55:02.750Z,47.50
2019-06-10T16:57:33.266Z,47.30
2019-06-10T17:00:02.774Z,47.50
2019-06-10T17:02:30.020Z,47.50
2019-06-10T17:04:58.621Z,47.90
2019-06-10T17:07:26.975Z,48.00
2019-06-10T17:09:54.946Z,48.10
2019-06-10T17:12:24.845Z,48.00
2019-06-10T17:14:52.728Z,47.90
2019-06-10T17:17:23.530Z,47.50
2019-06-10T17:19:50.290Z,47.80
2019-06-10T17:22:18.774Z,48.30
2019-06-10T17:24:46.721Z,48.40
2019-06-10T17:27:14.594Z,49.50
2019-06-10T17:29:42.741Z,53.00
2019-06-10T17:32:13.132Z,54.80
2019-06-10T17:34:42.226Z,58.30
2019-06-10T17:37:09.775Z,60.20
2019-06-10T17:39:37.626Z,62.50
2019-06-10T17:42:05.493Z,62.50
2019-06-10T17:44:33.360Z,65.90
2019-06-10T17:47:02.245Z,65.60
2019-06-10T17:49:33.227Z,65.30
2019-06-10T17:52:02.406Z,66.80
2019-06-10T17:54:30.331Z,65.00
2019-06-10T17:56:58.369Z,65.20
2019-06-10T17:59:26.832Z,68.30
2019-06-10T18:01:54.806Z,65.90
2019-06-10T18:04:23.988Z,65.30
2019-06-10T18:06:52.928Z,67.20
2019-06-10T18:09:23.167Z,67.20
2019-06-10T18:11:50.429Z,66.10
2019-06-10T18:14:18.293Z,66.10
2019-06-10T18:16:46.155Z,65.10
2019-06-10T18:19:14.031Z,65.00
2019-06-10T18:21:41.901Z,63.70
2019-06-10T18:24:09.777Z,62.60
2019-06-10T18:26:38.037Z,61.60
2019-06-10T18:29:09.176Z,59.70
2019-06-10T18:31:37.038Z,60.10
2019-06-10T18:34:05.042Z,59.30
2019-06-10T18:36:34.635Z,59.00
2019-06-10T18:39:02.982Z,59.40
2019-06-10T18:41:30.959Z,60.30
2019-06-10T18:43:58.833Z,62.30
2019-06-10T18:46:27.940Z,63.50
2019-06-10T18:48:55.895Z,63.10
2019-06-10T18:51:23.764Z,63.20
2019-06-10T18:53:51.641Z,65.00
2019-06-10T18:56:19.529Z,65.10
2019-06-10T18:58:47.378Z,65.00
2019-06-10T19:01:15.242Z,64.70
2019-06-10T19:03:43.294Z,64.60
2019-06-10T19:06:12.560Z,63.80
2019-06-10T19:08:43.385Z,63.50
2019-06-10T19:11:10.166Z,62.90
2019-06-10T19:13:39.139Z,62.10
2019-06-10T19:16:07.549Z,60.50
2019-06-10T19:18:36.069Z,62.80
2019-06-10T19:21:08.349Z,61.00
2019-06-10T19:23:35.121Z,61.40
2019-06-10T19:26:03.196Z,60.90
2019-06-10T19:28:33.408Z,60.80
2019-06-10T19:31:02.416Z,60.70
2019-06-10T19:33:32.462Z,61.30
2019-06-10T19:36:02.102Z,60.20
2019-06-10T19:38:29.121Z,59.40
2019-06-10T19:40:56.982Z,60.20
2019-06-10T19:43:24.797Z,60.80
2019-06-10T19:45:53.060Z,60.80
2019-06-10T19:48:21.031Z,60.30
2019-06-10T19:50:51.309Z,59.20
2019-06-10T19:53:18.399Z,58.50
2019-06-10T19:55:46.289Z,58.30
2019-06-10T19:58:14.126Z,57.90
2019-06-10T20:00:48.849Z,57.80
2019-06-10T20:03:11.514Z,57.50
2019-06-10T20:05:40.024Z,57.80
2019-06-10T20:08:07.956Z,57.10
2019-06-10T20:10:36.013Z,56.90
2019-06-10T20:13:04.082Z,56.90
2019-06-10T20:15:32.807Z,57.10
2019-06-10T20:18:02.907Z,57.10
2019-06-10T20:20:33.143Z,57.60
2019-06-10T20:23:02.880Z,57.10
2019-06-10T20:25:29.282Z,56.90
2019-06-10T20:27:57.141Z,57.30
2019-06-10T20:30:28.678Z,57.20
2019-06-10T20:32:56.344Z,57.10
2019-06-10T20:35:24.045Z,57.10
2019-06-10T20:37:53.911Z,57.00
2019-06-10T20:40:22.183Z,57.10
2019-06-10T20:42:50.042Z,57.50
2019-06-10T20:45:18.013Z,57.30
2019-06-10T20:47:48.010Z,57.40
2019-06-10T20:50:15.398Z,57.40
2019-06-10T20:52:45.681Z,57.10
2019-06-10T20:55:12.895Z,56.90
2019-06-10T20:57:52.126Z,57.00
2019-06-10T21:00:21.976Z,56.80
2019-06-10T21:02:41.624Z,56.90
2019-06-10T21:05:10.431Z,56.70
2019-06-10T21:07:39.204Z,56.90
2019-06-10T21:10:07.457Z,57.10
2019-06-10T21:12:35.319Z,57.20
2019-06-10T21:15:04.386Z,57.20
2019-06-10T21:17:33.276Z,57.40
2019-06-10T21:20:03.361Z,57.30
2019-06-10T21:22:32.544Z,57.40
2019-06-10T21:25:02.343Z,57.40
2019-06-10T21:27:29.762Z,57.10
2019-06-10T21:29:57.626Z,57.40
2019-06-10T21:32:25.494Z,57.40
2019-06-10T21:34:53.912Z,57.40
2019-06-10T21:37:22.689Z,57.50
2019-06-10T21:39:51.583Z,57.50
2019-06-10T21:42:20.106Z,57.60
2019-06-10T21:44:48.042Z,57.90
2019-06-10T21:47:16.034Z,57.90
2019-06-10T21:49:44.313Z,57.90
2019-06-10T21:52:13.395Z,58.00
2019-06-10T21:54:42.558Z,58.30
2019-06-10T21:57:10.781Z,58.30
2019-06-10T22:00:03.749Z,58.40
2019-06-10T22:02:32.411Z,58.60
2019-06-10T22:05:03.136Z,58.40
2019-06-10T22:07:29.891Z,58.70
2019-06-10T22:09:57.758Z,58.60
2019-06-10T22:12:25.633Z,58.50
2019-06-10T22:14:54.658Z,58.70
2019-06-10T22:17:22.625Z,58.90
2019-06-10T22:19:51.219Z,58.80
2019-06-10T22:22:20.005Z,58.80
2019-06-10T22:24:48.812Z,59.00
2019-06-10T22:27:16.835Z,58.90
2019-06-10T22:29:45.067Z,58.90
2019-06-10T22:32:13.082Z,59.00
2019-06-10T22:34:42.158Z,59.10
2019-06-10T22:37:12.357Z,58.90
2019-06-10T22:39:41.921Z,59.20
2019-06-10T22:42:09.147Z,59.90
2019-06-10T22:44:37.013Z,59.20
2019-06-10T22:47:04.879Z,59.10
2019-06-10T22:49:32.938Z,59.20
2019-06-10T22:52:01.005Z,59.20
2019-06-10T22:54:28.872Z,59.30
2019-06-10T22:56:58.197Z,59.40
2019-06-10T22:59:26.332Z,59.30
2019-06-10T23:01:56.289Z,59.40
2019-06-10T23:04:23.714Z,59.60
2019-06-10T23:06:53.375Z,59.60
2019-06-10T23:09:22.258Z,59.80
2019-06-10T23:11:51.151Z,59.80
2019-06-10T23:14:19.674Z,59.90
2019-06-10T23:16:48.791Z,60.00
2019-06-10T23:19:16.710Z,60.10
2019-06-10T23:21:44.579Z,60.20
2019-06-10T23:24:13.418Z,60.00
2019-06-10T23:26:42.494Z,60.30
2019-06-10T23:29:12.264Z,60.40
2019-06-10T23:31:49.646Z,61.30
2019-06-10T23:34:09.425Z,60.40
2019-06-10T23:36:37.297Z,61.20
2019-06-10T23:39:05.767Z,60.60
2019-06-10T23:41:33.627Z,60.80
2019-06-10T23:44:04.100Z,60.90
2019-06-10T23:46:31.987Z,60.80
2019-06-10T23:48:59.966Z,60.80
2019-06-10T23:51:27.831Z,60.80
2019-06-10T23:53:58.358Z,60.80
2019-06-10T23:56:25.131Z,60.60
2019-06-10T23:58:55.356Z,60.90
